Time;durP1;ratioP1;P1;durP2;ratioP2;P2;SDS_P1;SDS_P2;PMS_P1;PMS_P2;Temp;Humidity;BMP_temperature;BMP_pressure;BME280_temperature;BME280_humidity;BME280_pressure;Samples;Min_cycle;Max_cycle;Signal;HPM_P1;HPM_P2
2023/02/03 00:01:54;;;;;;;;;;;8.40;1.00;;;;;;5014960;28;19971;-88
2023/02/03 00:04:54;;;;;;;;;;;8.40;1.00;;;;;;4994758;28;19929;-89
2023/02/03 00:10:24;;;;;;;;;;;8.30;1.00;;;;;;5011072;28;19997;-88
2023/02/03 00:16:00;;;;;;;;;;;8.40;1.00;;;;;;4996762;28;20391;-77
2023/02/03 00:18:26;;;;;;;;;;;8.30;1.00;;;;;;5005949;28;20357;-76
2023/02/03 00:20:52;;;;;;;;;;;8.30;1.00;;;;;;5013921;28;19939;-76
2023/02/03 00:23:19;;;;;;;;;;;8.20;1.00;;;;;;5012893;28;19937;-76
2023/02/03 00:26:20;;;;;;;;;;;8.20;1.00;;;;;;4999580;28;19914;-76
2023/02/03 00:28:46;;;;;;;;;;;8.30;1.00;;;;;;4958529;28;20369;-77
2023/02/03 00:31:15;;;;;;;;;;;8.20;1.00;;;;;;4962123;28;19966;-77
2023/02/03 00:34:09;;;;;;;;;;;8.30;1.00;;;;;;4953403;28;19969;-76
2023/02/03 00:36:42;;;;;;;;;;;8.30;1.00;;;;;;4951685;28;20526;-76
2023/02/03 00:39:24;;;;;;;;;;;8.20;1.00;;;;;;4971964;28;19910;-76
2023/02/03 00:41:50;;;;;;;;;;;8.20;1.00;;;;;;4959278;28;20432;-76
2023/02/03 00:44:18;;;;;;;;;;;8.20;1.00;;;;;;4967558;28;19919;-76
2023/02/03 00:46:54;;;;;;;;;;;8.20;1.00;;;;;;4955520;28;19922;-76
2023/02/03 00:49:24;;;;;;;;;;;8.20;1.00;;;;;;4954643;28;19915;-76
2023/02/03 00:51:54;;;;;;;;;;;8.20;1.00;;;;;;4963031;28;19933;-76
2023/02/03 00:54:20;;;;;;;;;;;8.30;1.00;;;;;;4962116;28;19921;-76
2023/02/03 00:56:48;;;;;;;;;;;8.20;1.00;;;;;;4966329;28;19914;-76
2023/02/03 00:59:14;;;;;;;;;;;8.30;1.00;;;;;;4953325;28;19910;-76
2023/02/03 01:02:12;;;;;;;;;;;8.30;1.00;;;;;;4946416;28;21735;-88
2023/02/03 01:04:43;;;;;;;;;;;8.20;1.00;;;;;;5020757;28;19914;-88
2023/02/03 01:07:12;;;;;;;;;;;8.00;1.00;;;;;;4993941;28;20012;-88
2023/02/03 01:09:42;;;;;;;;;;;7.90;1.00;;;;;;5015890;28;19910;-88
2023/02/03 01:12:08;;;;;;;;;;;7.90;1.00;;;;;;5004121;28;20018;-88
2023/02/03 01:14:54;;;;;;;;;;;7.90;1.00;;;;;;5006822;28;19909;-88
2023/02/03 01:17:24;;;;;;;;;;;7.90;1.00;;;;;;5013638;28;19917;-88
2023/02/03 01:19:54;;;;;;;;;;;7.90;1.00;;;;;;4992880;28;19920;-88
2023/02/03 01:22:24;;;;;;;;;;;7.90;1.00;;;;;;4984556;28;19914;-87
2023/02/03 01:25:24;;;;;;;;;;;7.90;1.00;;;;;;4997227;28;19918;-88
2023/02/03 01:27:54;;;;;;;;;;;7.90;1.00;;;;;;5020681;28;19914;-89
2023/02/03 01:30:20;;;;;;;;;;;7.80;1.00;;;;;;5010827;28;19972;-89
2023/02/03 01:33:00;;;;;;;;;;;7.80;1.00;;;;;;4981903;28;19973;-88
2023/02/03 01:35:42;;;;;;;;;;;7.90;1.00;;;;;;5011399;28;19909;-88
2023/02/03 01:38:12;;;;;;;;;;;7.90;1.00;;;;;;5013073;28;19913;-88
2023/02/03 01:40:54;;;;;;;;;;;7.90;1.00;;;;;;5006292;28;19973;-89
2023/02/03 01:43:54;;;;;;;;;;;7.90;1.00;;;;;;5013113;28;20000;-88
2023/02/03 01:46:54;;;;;;;;;;;7.90;1.00;;;;;;5011411;28;19929;-88
2023/02/03 01:49:54;;;;;;;;;;;8.00;1.00;;;;;;5023877;28;19921;-89
2023/02/03 01:52:25;;;;;;;;;;;7.90;1.00;;;;;;5019661;28;19913;-88
2023/02/03 01:54:56;;;;;;;;;;;7.90;1.00;;;;;;4997941;28;19924;-89
2023/02/03 01:57:36;;;;;;;;;;;7.90;1.00;;;;;;4997498;28;20008;-87
2023/02/03 02:00:24;;;;;;;;;;;8.00;1.00;;;;;;4998612;28;19921;-89
2023/02/03 02:03:18;;;;;;;;;;;8.00;1.00;;;;;;5031851;28;20083;-89
2023/02/03 02:06:18;;;;;;;;;;;8.10;1.00;;;;;;5031238;28;19937;-89
2023/02/03 02:08:50;;;;;;;;;;;8.10;1.00;;;;;;5017958;28;19913;-89
2023/02/03 02:11:22;;;;;;;;;;;8.10;1.00;;;;;;4979894;28;19914;-88
2023/02/03 02:14:24;;;;;;;;;;;8.10;1.00;;;;;;5016321;28;20432;-89
2023/02/03 02:17:02;;;;;;;;;;;8.10;1.00;;;;;;5024179;28;20000;-76
2023/02/03 02:19:48;;;;;;;;;;;8.10;1.00;;;;;;5015160;28;20392;-77
2023/02/03 02:22:26;;;;;;;;;;;8.10;1.00;;;;;;5015732;28;19917;-77
2023/02/03 02:25:06;;;;;;;;;;;8.10;1.00;;;;;;4999683;28;19910;-77
2023/02/03 02:27:41;;;;;;;;;;;8.10;1.00;;;;;;5003023;28;20328;-76
2023/02/03 02:30:07;;;;;;;;;;;8.20;1.00;;;;;;5015474;28;20357;-77
2023/02/03 02:36:00;;;;;;;;;;;8.10;1.00;;;;;;4996595;28;19941;-89
2023/02/03 02:38:42;;;;;;;;;;;8.10;1.00;;;;;;5012610;28;19909;-89
2023/02/03 02:41:30;;;;;;;;;;;8.10;1.00;;;;;;5003850;28;19918;-88
2023/02/03 02:44:04;;;;;;;;;;;8.10;1.00;;;;;;4987261;28;19967;-88
2023/02/03 02:46:54;;;;;;;;;;;8.20;1.00;;;;;;5031796;28;20067;-89
2023/02/03 02:49:54;;;;;;;;;;;8.20;1.00;;;;;;5011893;28;19914;-88
2023/02/03 02:52:21;;;;;;;;;;;8.30;1.00;;;;;;5011595;28;19914;-88
2023/02/03 02:54:51;;;;;;;;;;;8.30;1.00;;;;;;4989516;28;19910;-88
2023/02/03 02:57:25;;;;;;;;;;;8.20;1.00;;;;;;4979100;28;19914;-88
2023/02/03 02:59:54;;;;;;;;;;;8.30;1.00;;;;;;4980528;28;19914;-88
2023/02/03 03:02:20;;;;;;;;;;;8.20;1.00;;;;;;5007961;28;20016;-76
2023/02/03 03:04:54;;;;;;;;;;;8.20;1.00;;;;;;5001769;28;19910;-76
2023/02/03 03:07:22;;;;;;;;;;;8.20;1.00;;;;;;5005587;28;19929;-76
2023/02/03 03:09:51;;;;;;;;;;;8.20;1.00;;;;;;5011308;28;20356;-76
2023/02/03 03:12:21;;;;;;;;;;;8.20;1.00;;;;;;5007949;28;19910;-76
2023/02/03 03:15:06;;;;;;;;;;;8.20;1.00;;;;;;4996701;28;19922;-76
2023/02/03 03:17:39;;;;;;;;;;;8.20;1.00;;;;;;5001999;28;19930;-76
2023/02/03 03:20:08;;;;;;;;;;;8.10;1.00;;;;;;5010168;28;19918;-76
2023/02/03 03:22:48;;;;;;;;;;;8.20;1.00;;;;;;5013987;28;19916;-76
2023/02/03 03:25:20;;;;;;;;;;;8.30;1.00;;;;;;5011052;28;19913;-76
2023/02/03 03:28:00;;;;;;;;;;;8.30;1.00;;;;;;5004060;28;19957;-77
2023/02/03 03:30:29;;;;;;;;;;;8.30;1.00;;;;;;4998075;28;20369;-76
2023/02/03 03:39:20;;;;;;;;;;;8.30;1.00;;;;;;5004971;28;20287;-88
2023/02/03 03:42:00;;;;;;;;;;;8.20;1.00;;;;;;4981809;28;20399;-87
2023/02/03 03:47:42;;;;;;;;;;;8.20;1.00;;;;;;4995215;28;19936;-76
2023/02/03 03:50:10;;;;;;;;;;;8.20;1.00;;;;;;5007868;28;20351;-76
2023/02/03 03:52:37;;;;;;;;;;;8.10;1.00;;;;;;5003166;28;20276;-76
2023/02/03 03:55:08;;;;;;;;;;;8.10;1.00;;;;;;5013390;28;19937;-76
2023/02/03 03:57:50;;;;;;;;;;;8.20;1.00;;;;;;5003138;28;20700;-76
2023/02/03 04:00:18;;;;;;;;;;;8.10;1.00;;;;;;4993866;28;19923;-76
2023/02/03 04:02:51;;;;;;;;;;;8.10;1.00;;;;;;5006839;28;19918;-77
2023/02/03 04:05:17;;;;;;;;;;;8.10;1.00;;;;;;5004053;28;20408;-77
2023/02/03 04:07:46;;;;;;;;;;;8.10;1.00;;;;;;5014134;28;19909;-77
2023/02/03 04:10:24;;;;;;;;;;;8.10;1.00;;;;;;5014154;28;20000;-77
2023/02/03 04:12:50;;;;;;;;;;;8.10;1.00;;;;;;5013986;28;19913;-76
2023/02/03 04:15:24;;;;;;;;;;;8.20;1.00;;;;;;5023745;28;19933;-77
2023/02/03 04:20:53;;;;;;;;;;;8.20;1.00;;;;;;5008201;28;19940;-89
2023/02/03 04:26:22;;;;;;;;;;;8.30;1.00;;;;;;5016581;28;19917;-87
2023/02/03 04:29:06;;;;;;;;;;;8.20;1.00;;;;;;4989146;28;19910;-88
2023/02/03 04:34:37;;;;;;;;;;;8.30;1.00;;;;;;5011653;28;19997;-76
2023/02/03 04:37:02;;;;;;;;;;;8.30;1.00;;;;;;5006821;28;20435;-77
2023/02/03 04:39:54;;;;;;;;;;;8.30;1.00;;;;;;4996251;28;19959;-76
2023/02/03 04:42:20;;;;;;;;;;;8.20;1.00;;;;;;5003873;28;20105;-77
2023/02/03 04:44:54;;;;;;;;;;;8.20;1.00;;;;;;5016254;28;19968;-76
2023/02/03 04:47:20;;;;;;;;;;;8.30;1.00;;;;;;5017973;28;20097;-76
2023/02/03 04:49:54;;;;;;;;;;;8.40;1.00;;;;;;5011304;28;19910;-78
2023/02/03 04:52:20;;;;;;;;;;;8.20;1.00;;;;;;5011162;28;20384;-76
2023/02/03 04:54:54;;;;;;;;;;;8.20;1.00;;;;;;5014976;28;19914;-76
2023/02/03 04:57:24;;;;;;;;;;;8.20;1.00;;;;;;5000008;28;19942;-78
2023/02/03 04:59:50;;;;;;;;;;;8.20;1.00;;;;;;5017098;28;19980;-78
2023/02/03 05:02:16;;;;;;;;;;;8.20;1.00;;;;;;4998151;28;20321;-76
2023/02/03 05:04:42;;;;;;;;;;;8.20;1.00;;;;;;5003120;28;20246;-77
2023/02/03 05:07:08;;;;;;;;;;;8.20;1.00;;;;;;5012746;28;19909;-76
2023/02/03 05:09:34;;;;;;;;;;;8.10;1.00;;;;;;5011879;28;20246;-76
2023/02/03 05:12:00;;;;;;;;;;;8.10;1.00;;;;;;4986873;28;20381;-77
2023/02/03 05:14:25;;;;;;;;;;;8.10;1.00;;;;;;5009486;28;19913;-77
2023/02/03 05:16:51;;;;;;;;;;;8.00;1.00;;;;;;5003801;28;19910;-77
2023/02/03 05:28:26;;;;;;;;;;;8.00;1.00;;;;;;5004144;28;20485;-87
2023/02/03 05:37:18;;;;;;;;;;;7.90;1.00;;;;;;5017177;28;19937;-88
2023/02/03 05:39:44;;;;;;;;;;;7.90;1.00;;;;;;5002564;28;20008;-88
2023/02/03 05:42:09;;;;;;;;;;;7.90;1.00;;;;;;5018650;28;20005;-87
2023/02/03 05:44:35;;;;;;;;;;;7.90;1.00;;;;;;4997459;28;20250;-78
2023/02/03 05:47:06;;;;;;;;;;;8.00;1.00;;;;;;4998076;28;19921;-77
2023/02/03 05:49:54;;;;;;;;;;;8.00;1.00;;;;;;5006572;28;19910;-81
2023/02/03 05:52:30;;;;;;;;;;;8.10;1.00;;;;;;4990357;28;19948;-81
2023/02/03 05:55:00;;;;;;;;;;;8.10;1.00;;;;;;4997079;28;19910;-81
2023/02/03 05:57:48;;;;;;;;;;;8.10;1.00;;;;;;5003559;28;19959;-82
2023/02/03 06:00:14;;;;;;;;;;;8.10;1.00;;;;;;5007389;28;20000;-81
2023/02/03 06:02:40;;;;;;;;;;;8.00;1.00;;;;;;5008412;28;20044;-81
2023/02/03 06:05:05;;;;;;;;;;;8.10;1.00;;;;;;5020641;28;19914;-76
2023/02/03 06:07:31;;;;;;;;;;;8.10;1.00;;;;;;5016240;28;20301;-77
2023/02/03 06:10:01;;;;;;;;;;;8.00;1.00;;;;;;5031055;28;19992;-77
2023/02/03 06:12:43;;;;;;;;;;;8.10;1.00;;;;;;4999525;28;19913;-76
2023/02/03 06:15:24;;;;;;;;;;;8.10;1.00;;;;;;5015596;28;19992;-76
2023/02/03 06:20:54;;;;;;;;;;;8.10;1.00;;;;;;5015568;28;19970;-76
2023/02/03 06:23:30;;;;;;;;;;;8.10;1.00;;;;;;4999570;28;19910;-77
2023/02/03 06:26:06;;;;;;;;;;;8.10;1.00;;;;;;4996358;28;19941;-77
2023/02/03 06:28:37;;;;;;;;;;;8.10;1.00;;;;;;4996453;28;19913;-77
2023/02/03 06:31:03;;;;;;;;;;;8.10;1.00;;;;;;4995286;28;20365;-77
2023/02/03 06:33:29;;;;;;;;;;;8.10;1.00;;;;;;4978901;28;19937;-77
2023/02/03 06:35:54;;;;;;;;;;;8.20;1.00;;;;;;5017529;28;19910;-76
2023/02/03 06:38:20;;;;;;;;;;;8.20;1.00;;;;;;4998475;28;20121;-76
2023/02/03 06:41:00;;;;;;;;;;;8.20;1.00;;;;;;5000143;28;19913;-78
2023/02/03 06:44:03;;;;;;;;;;;8.20;1.00;;;;;;5010425;28;20326;-78
2023/02/03 06:46:37;;;;;;;;;;;8.20;1.00;;;;;;5014892;28;20268;-79
2023/02/03 06:55:19;;;;;;;;;;;8.20;1.00;;;;;;5001381;28;19965;-82
2023/02/03 07:00:47;;;;;;;;;;;8.20;1.00;;;;;;5003033;28;20105;-82
2023/02/03 07:03:48;;;;;;;;;;;8.20;1.00;;;;;;5001938;28;20028;-82
2023/02/03 07:06:37;;;;;;;;;;;8.10;1.00;;;;;;5021311;28;19909;-78
2023/02/03 07:09:07;;;;;;;;;;;8.20;1.00;;;;;;5005928;28;20028;-78
2023/02/03 07:11:36;;;;;;;;;;;8.20;1.00;;;;;;5010389;28;19910;-78
2023/02/03 07:14:06;;;;;;;;;;;8.20;1.00;;;;;;4979624;28;19941;-78
2023/02/03 07:16:36;;;;;;;;;;;8.20;1.00;;;;;;5007600;28;19910;-78
2023/02/03 07:19:24;;;;;;;;;;;8.30;1.00;;;;;;5008350;28;19913;-79
2023/02/03 07:21:55;;;;;;;;;;;8.30;1.00;;;;;;5014691;28;19917;-77
2023/02/03 07:24:20;;;;;;;;;;;8.30;1.00;;;;;;4998515;28;19921;-77
2023/02/03 07:26:54;;;;;;;;;;;8.40;1.00;;;;;;4977828;28;19917;-76
2023/02/03 07:29:30;;;;;;;;;;;8.30;1.00;;;;;;4999108;28;20000;-76
2023/02/03 07:32:01;;;;;;;;;;;8.30;1.00;;;;;;5004179;28;19979;-76
2023/02/03 07:34:30;;;;;;;;;;;8.30;1.00;;;;;;4995965;28;19921;-77
2023/02/03 07:37:01;;;;;;;;;;;8.30;1.00;;;;;;5008193;28;19910;-77
2023/02/03 07:39:36;;;;;;;;;;;8.40;1.00;;;;;;5007556;28;19910;-76
2023/02/03 07:42:02;;;;;;;;;;;8.40;1.00;;;;;;4995513;28;19960;-76
2023/02/03 07:44:31;;;;;;;;;;;8.40;1.00;;;;;;5003813;28;20332;-76
2023/02/03 07:47:13;;;;;;;;;;;8.40;1.00;;;;;;5005158;28;19910;-90
2023/02/03 07:49:38;;;;;;;;;;;8.40;1.00;;;;;;4997411;28;20353;-79
2023/02/03 07:55:07;;;;;;;;;;;8.50;1.00;;;;;;5001486;28;20055;-79
2023/02/03 07:57:36;;;;;;;;;;;8.60;1.00;;;;;;4994670;28;19945;-78
2023/02/03 08:00:03;;;;;;;;;;;8.60;1.00;;;;;;4996922;28;19910;-78
2023/02/03 08:02:30;;;;;;;;;;;8.60;1.00;;;;;;5013709;28;19964;-78
2023/02/03 08:05:07;;;;;;;;;;;8.60;1.00;;;;;;5000407;28;19968;-77
2023/02/03 08:07:36;;;;;;;;;;;8.60;1.00;;;;;;5001232;28;19995;-78
2023/02/03 08:10:14;;;;;;;;;;;8.70;1.00;;;;;;5002225;28;20383;-78
2023/02/03 08:12:43;;;;;;;;;;;8.70;1.00;;;;;;5010258;28;19917;-78
2023/02/03 08:15:19;;;;;;;;;;;8.80;1.00;;;;;;4980410;28;20388;-79
2023/02/03 08:18:08;;;;;;;;;;;8.70;1.00;;;;;;4999374;28;19916;-79
2023/02/03 08:20:37;;;;;;;;;;;8.80;1.00;;;;;;5011134;28;20004;-79
2023/02/03 08:23:24;;;;;;;;;;;8.80;1.00;;;;;;4990082;28;19910;-78
2023/02/03 08:25:54;;;;;;;;;;;8.90;1.00;;;;;;4997984;28;19979;-79
2023/02/03 08:28:36;;;;;;;;;;;8.80;1.00;;;;;;4982199;28;19969;-78
2023/02/03 08:31:10;;;;;;;;;;;8.90;1.00;;;;;;5004079;28;19909;-78
2023/02/03 08:33:35;;;;;;;;;;;8.90;1.00;;;;;;4992990;28;20509;-79
2023/02/03 08:36:07;;;;;;;;;;;8.90;1.00;;;;;;4997443;28;19921;-78
2023/02/03 08:38:43;;;;;;;;;;;8.90;1.00;;;;;;5009573;28;19996;-78
2023/02/03 08:41:14;;;;;;;;;;;9.00;1.00;;;;;;5000333;28;19920;-78
2023/02/03 08:43:43;;;;;;;;;;;9.10;1.00;;;;;;4985609;28;20004;-79
2023/02/03 08:46:42;;;;;;;;;;;9.20;1.00;;;;;;4994715;28;19914;-79
2023/02/03 08:49:12;;;;;;;;;;;9.20;1.00;;;;;;4994685;28;20293;-79
2023/02/03 08:51:55;;;;;;;;;;;9.20;1.00;;;;;;4997275;28;19918;-89
2023/02/03 08:54:39;;;;;;;;;;;9.20;1.00;;;;;;4982769;28;20012;-88
2023/02/03 08:57:30;;;;;;;;;;;9.30;1.00;;;;;;5005796;28;19937;-92
2023/02/03 09:00:24;;;;;;;;;;;9.30;1.00;;;;;;5006710;28;19910;-86
2023/02/03 09:08:56;;;;;;;;;;;9.50;1.00;;;;;;4998118;28;19956;-87
2023/02/03 09:14:31;;;;;;;;;;;9.70;1.00;;;;;;5005622;28;20377;-87
2023/02/03 09:17:08;;;;;;;;;;;9.70;1.00;;;;;;4994943;28;20000;-86
2023/02/03 09:19:43;;;;;;;;;;;9.70;1.00;;;;;;4996790;28;19917;-86
2023/02/03 09:22:13;;;;;;;;;;;9.80;1.00;;;;;;4989844;28;19918;-79
2023/02/03 09:24:39;;;;;;;;;;;9.80;1.00;;;;;;5002368;28;19914;-79
2023/02/03 09:27:18;;;;;;;;;;;9.70;1.00;;;;;;5023651;28;20064;-79
2023/02/03 09:29:49;;;;;;;;;;;9.80;1.00;;;;;;5007410;28;19910;-79
2023/02/03 09:32:37;;;;;;;;;;;9.90;1.00;;;;;;4988739;28;19921;-80
2023/02/03 09:35:13;;;;;;;;;;;9.80;1.00;;;;;;5008601;28;20588;-80
2023/02/03 09:37:38;;;;;;;;;;;9.80;1.00;;;;;;4989578;28;19913;-88
2023/02/03 09:43:42;;;;;;;;;;;9.80;1.00;;;;;;5000783;28;19921;-85
2023/02/03 09:49:40;;;;;;;;;;;9.80;1.00;;;;;;4995806;28;19921;-86
2023/02/03 09:52:38;;;;;;;;;;;9.90;1.00;;;;;;4991412;28;19937;-80
2023/02/03 09:58:19;;;;;;;;;;;10.00;1.00;;;;;;4995607;28;19964;-80
2023/02/03 10:00:49;;;;;;;;;;;10.00;1.00;;;;;;5004907;28;19917;-80
2023/02/03 10:03:42;;;;;;;;;;;10.10;1.00;;;;;;5014890;28;19925;-80
2023/02/03 10:06:11;;;;;;;;;;;10.40;1.00;;;;;;5012294;28;20346;-88
2023/02/03 10:21:01;;;;;;;;;;;10.20;1.00;;;;;;5016215;28;19924;-79
2023/02/03 10:23:32;;;;;;;;;;;10.10;1.00;;;;;;5014557;28;19963;-79
2023/02/03 10:26:04;;;;;;;;;;;10.10;1.00;;;;;;4983802;28;20353;-79
2023/02/03 10:28:45;;;;;;;;;;;10.10;1.00;;;;;;5030855;28;19960;-78
2023/02/03 10:31:31;;;;;;;;;;;10.20;1.00;;;;;;5002680;28;19921;-78
2023/02/03 10:34:25;;;;;;;;;;;10.20;1.00;;;;;;4995266;28;19913;-79
2023/02/03 10:36:56;;;;;;;;;;;10.10;1.00;;;;;;5014085;28;19920;-85
2023/02/03 10:39:49;;;;;;;;;;;10.20;1.00;;;;;;5015065;28;20000;-87
2023/02/03 10:42:15;;;;;;;;;;;10.30;1.00;;;;;;5001729;28;19948;-86
2023/02/03 10:44:56;;;;;;;;;;;10.30;1.00;;;;;;4999169;28;20379;-89
2023/02/03 10:47:37;;;;;;;;;;;10.20;1.00;;;;;;4999232;28;19953;-88
2023/02/03 10:56:10;;;;;;;;;;;10.10;1.00;;;;;;5012973;28;19933;-88
2023/02/03 10:58:55;;;;;;;;;;;10.20;1.00;;;;;;5003092;28;19921;-89
2023/02/03 11:01:23;;;;;;;;;;;10.30;1.00;;;;;;5015154;28;20361;-87
2023/02/03 11:13:11;;;;;;;;;;;10.40;1.00;;;;;;5010231;28;19921;-79
2023/02/03 11:16:12;;;;;;;;;;;10.40;1.00;;;;;;4999235;28;19913;-90
2023/02/03 11:21:44;;;;;;;;;;;10.50;1.00;;;;;;5002720;28;20021;-88
2023/02/03 11:27:21;;;;;;;;;;;10.70;1.00;;;;;;4998218;28;19916;-82
2023/02/03 11:32:55;;;;;;;;;;;10.70;1.00;;;;;;5003409;28;19987;-84
2023/02/03 11:38:55;;;;;;;;;;;10.50;1.00;;;;;;5000609;28;19920;-83
2023/02/03 11:41:21;;;;;;;;;;;10.60;1.00;;;;;;5015443;28;19924;-85
2023/02/03 11:43:55;;;;;;;;;;;10.70;1.00;;;;;;4992283;28;19914;-84
2023/02/03 11:46:25;;;;;;;;;;;10.70;1.00;;;;;;5004679;28;20008;-86
2023/02/03 11:49:15;;;;;;;;;;;10.70;1.00;;;;;;5002217;28;20007;-84
2023/02/03 11:57:49;;;;;;;;;;;10.60;1.00;;;;;;4964344;28;20427;-84
2023/02/03 12:03:36;;;;;;;;;;;10.60;1.00;;;;;;4966158;28;20322;-91
2023/02/03 12:06:19;;;;;;;;;;;10.50;1.00;;;;;;4955015;28;19914;-89
2023/02/03 12:09:01;;;;;;;;;;;10.60;1.00;;;;;;4937474;28;20398;-77
2023/02/03 12:11:50;;;;;;;;;;;10.70;1.00;;;;;;4952535;29;19917;-78
2023/02/03 12:14:31;;;;;;;;;;;10.70;1.00;;;;;;4949720;28;19964;-77
2023/02/03 12:20:31;;;;;;;;;;;10.60;1.00;;;;;;4953750;28;20018;-78
2023/02/03 12:35:26;;;;;;;;;;;10.10;1.00;;;;;;5014322;28;20453;-89
2023/02/03 12:41:06;;;;;;;;;;;10.10;1.00;;;;;;5012069;28;19919;-77
2023/02/03 12:43:37;;;;;;;;;;;10.10;1.00;;;;;;5005102;28;19925;-79
2023/02/03 12:46:31;;;;;;;;;;;10.00;1.00;;;;;;5012477;28;19983;-81
2023/02/03 12:49:33;;;;;;;;;;;9.90;1.00;;;;;;5015695;28;19967;-80
2023/02/03 12:52:25;;;;;;;;;;;9.90;1.00;;;;;;4950544;29;19915;-81
2023/02/03 12:55:01;;;;;;;;;;;9.80;1.00;;;;;;4955251;29;19910;-79
2023/02/03 12:57:34;;;;;;;;;;;9.80;1.00;;;;;;4944893;29;20424;-78
2023/02/03 13:00:01;;;;;;;;;;;9.80;1.00;;;;;;4948180;29;20469;-79
2023/02/03 13:02:44;;;;;;;;;;;9.70;1.00;;;;;;4956298;29;19919;-79
2023/02/03 13:05:32;;;;;;;;;;;9.70;1.00;;;;;;4956673;29;19926;-78
2023/02/03 13:08:34;;;;;;;;;;;9.70;1.00;;;;;;4955371;29;19915;-78
2023/02/03 13:14:37;;;;;;;;;;;9.60;1.00;;;;;;4900542;29;20290;-87
2023/02/03 13:20:12;;;;;;;;;;;9.40;1.00;;;;;;4899512;29;19918;-82
2023/02/03 13:25:58;;;;;;;;;;;9.40;1.00;;;;;;4908302;29;20538;-80
2023/02/03 13:28:40;;;;;;;;;;;9.40;1.00;;;;;;4910893;29;19926;-80
2023/02/03 13:31:18;;;;;;;;;;;9.30;1.00;;;;;;4933436;29;19918;-81
2023/02/03 13:34:01;;;;;;;;;;;9.30;1.00;;;;;;4937431;29;19911;-84
2023/02/03 13:36:37;;;;;;;;;;;9.30;1.00;;;;;;4937261;29;19911;-80
2023/02/03 13:39:25;;;;;;;;;;;9.30;1.00;;;;;;4936274;29;19915;-79
2023/02/03 13:41:55;;;;;;;;;;;9.40;1.00;;;;;;4937081;29;19926;-79
2023/02/03 13:44:25;;;;;;;;;;;9.40;1.00;;;;;;4950929;28;20400;-80
2023/02/03 13:47:13;;;;;;;;;;;9.30;1.00;;;;;;5010021;28;19910;-79
2023/02/03 13:50:01;;;;;;;;;;;9.40;1.00;;;;;;4979636;28;19960;-80
2023/02/03 13:52:56;;;;;;;;;;;9.40;1.00;;;;;;5003556;28;20328;-79
2023/02/03 13:55:43;;;;;;;;;;;9.40;1.00;;;;;;4964090;28;19914;-87
2023/02/03 14:01:13;;;;;;;;;;;9.40;1.00;;;;;;4967372;28;19914;-86
2023/02/03 14:03:42;;;;;;;;;;;9.40;1.00;;;;;;4959788;28;20251;-86
2023/02/03 14:12:18;;;;;;;;;;;9.40;1.00;;;;;;4973724;28;19917;-85
2023/02/03 14:15:02;;;;;;;;;;;9.30;1.00;;;;;;4946331;28;21475;-85
2023/02/03 14:20:39;;;;;;;;;;;9.40;1.00;;;;;;4961632;28;19960;-86
2023/02/03 14:23:25;;;;;;;;;;;9.40;1.00;;;;;;4951587;28;20017;-86
2023/02/03 14:26:14;;;;;;;;;;;9.40;1.00;;;;;;4956064;29;19914;-86
2023/02/03 14:28:49;;;;;;;;;;;9.30;1.00;;;;;;4947490;28;19917;-89
2023/02/03 14:34:55;;;;;;;;;;;9.30;1.00;;;;;;5002100;28;20025;-84
2023/02/03 14:40:25;;;;;;;;;;;9.30;3.90;;;;;;5002959;28;19956;-82
2023/02/03 14:43:25;;;;;;;;;;;9.30;7.40;;;;;;4997745;28;19925;-82
2023/02/03 14:46:08;;;;;;;;;;;9.20;9.50;;;;;;4997963;28;19992;-82
2023/02/03 14:48:37;;;;;;;;;;;9.20;16.30;;;;;;5007436;28;19910;-81
2023/02/03 14:51:03;;;;;;;;;;;9.20;15.70;;;;;;5018163;28;20088;-81
2023/02/03 14:54:01;;;;;;;;;;;9.20;20.50;;;;;;4995570;28;19946;-80
2023/02/03 14:57:14;;;;;;;;;;;9.30;21.10;;;;;;5012156;28;19964;-80
2023/02/03 14:59:43;;;;;;;;;;;9.20;22.90;;;;;;5013673;28;20594;-80
2023/02/03 15:02:22;;;;;;;;;;;9.20;28.30;;;;;;5026939;28;19916;-80
2023/02/03 15:05:13;;;;;;;;;;;9.20;30.30;;;;;;5034590;28;20001;-77
2023/02/03 15:07:50;;;;;;;;;;;9.10;42.00;;;;;;5019571;28;19914;-79
2023/02/03 15:10:20;;;;;;;;;;;9.10;42.10;;;;;;5016891;28;19956;-79
2023/02/03 15:12:50;;;;;;;;;;;9.20;42.20;;;;;;5014226;28;19910;-79
2023/02/03 15:15:23;;;;;;;;;;;9.20;42.20;;;;;;5008095;28;19932;-79
2023/02/03 15:17:50;;;;;;;;;;;9.20;42.30;;;;;;5022668;28;19909;-80
2023/02/03 15:20:19;;;;;;;;;;;9.10;42.00;;;;;;5002812;28;19914;-79
2023/02/03 15:22:49;;;;;;;;;;;9.10;42.20;;;;;;4997040;28;20268;-79
2023/02/03 15:28:19;;;;;;;;;;;9.10;42.30;;;;;;5009013;28;19916;-76
2023/02/03 15:31:02;;;;;;;;;;;9.20;42.10;;;;;;4997383;28;19909;-79
2023/02/03 15:33:29;;;;;;;;;;;9.20;42.30;;;;;;5014650;28;19932;-78
2023/02/03 15:35:57;;;;;;;;;;;9.20;34.70;;;;;;5008718;28;19968;-77
2023/02/03 15:38:43;;;;;;;;;;;9.30;28.40;;;;;;5002770;28;19914;-76
2023/02/03 15:41:21;;;;;;;;;;;9.30;26.70;;;;;;5007257;28;19943;-78
2023/02/03 15:43:57;;;;;;;;;;;9.30;25.00;;;;;;4988656;28;19949;-78
2023/02/03 15:49:40;;;;;;;;;;;9.40;22.60;;;;;;4996216;28;20777;-79
2023/02/03 15:52:15;;;;;;;;;;;9.30;21.40;;;;;;5014019;28;19913;-78
2023/02/03 15:54:50;;;;;;;;;;;9.20;30.00;;;;;;5008054;28;19918;-78
2023/02/03 15:57:21;;;;;;;;;;;9.10;42.30;;;;;;5019707;28;19914;-78
2023/02/03 16:00:19;;;;;;;;;;;9.10;42.30;;;;;;5004193;28;19979;-78
2023/02/03 16:03:07;;;;;;;;;;;9.10;42.00;;;;;;5005791;28;19914;-80
2023/02/03 16:05:47;;;;;;;;;;;9.20;42.10;;;;;;5022211;28;19983;-81
2023/02/03 16:08:28;;;;;;;;;;;9.10;42.10;;;;;;5003625;28;19917;-79
2023/02/03 16:10:55;;;;;;;;;;;9.10;42.10;;;;;;4998288;28;20285;-79
2023/02/03 16:13:25;;;;;;;;;;;9.10;42.10;;;;;;5014100;28;19932;-80
2023/02/03 16:19:12;;;;;;;;;;;9.30;42.40;;;;;;5009355;28;19920;-79
2023/02/03 16:21:47;;;;;;;;;;;9.20;42.10;;;;;;5001752;28;19914;-79
2023/02/03 16:24:49;;;;;;;;;;;9.10;42.20;;;;;;5000957;28;20330;-80
2023/02/03 16:27:25;;;;;;;;;;;9.20;42.20;;;;;;4999937;28;19960;-79
2023/02/03 16:54:01;;;;;;;;;;;9.00;65.60;;;;;;4946872;29;20435;-82
2023/02/03 16:56:31;;;;;;;;;;;9.10;66.50;;;;;;4937755;28;19911;-82
2023/02/03 16:58:56;;;;;;;;;;;9.10;66.60;;;;;;4953406;29;19910;-83
2023/02/03 17:01:22;;;;;;;;;;;9.10;68.00;;;;;;4937077;29;19945;-80
2023/02/03 17:04:07;;;;;;;;;;;9.00;69.30;;;;;;4953184;29;19941;-82
2023/02/03 17:06:43;;;;;;;;;;;9.10;71.30;;;;;;4953459;29;20396;-81
2023/02/03 17:09:13;;;;;;;;;;;9.10;72.10;;;;;;4965500;28;20284;-80
2023/02/03 17:11:43;;;;;;;;;;;9.10;68.10;;;;;;5013387;28;19964;-76
2023/02/03 17:14:13;;;;;;;;;;;9.10;67.10;;;;;;5003880;28;19950;-76
2023/02/03 17:16:43;;;;;;;;;;;9.20;63.70;;;;;;5001729;28;19948;-81
2023/02/03 17:19:09;;;;;;;;;;;9.20;58.20;;;;;;5011572;28;19921;-76
2023/02/03 17:21:38;;;;;;;;;;;9.20;53.60;;;;;;5000551;28;20399;-78
2023/02/03 17:24:13;;;;;;;;;;;9.30;49.80;;;;;;5006048;28;19997;-90
2023/02/03 17:26:39;;;;;;;;;;;9.30;52.60;;;;;;4994721;28;19988;-76
2023/02/03 17:29:08;;;;;;;;;;;9.30;45.00;;;;;;5006847;28;20008;-79
2023/02/03 17:31:37;;;;;;;;;;;9.30;42.30;;;;;;4997666;28;19968;-78
2023/02/03 17:34:03;;;;;;;;;;;9.40;42.30;;;;;;5001005;28;20021;-77
2023/02/03 17:36:31;;;;;;;;;;;9.30;42.40;;;;;;5008452;28;20238;-76
2023/02/03 17:39:02;;;;;;;;;;;9.40;42.50;;;;;;5016825;28;19909;-78
2023/02/03 17:41:27;;;;;;;;;;;9.40;42.50;;;;;;5003210;28;19932;-78
2023/02/03 17:43:58;;;;;;;;;;;9.40;42.30;;;;;;5005101;28;19913;-77
2023/02/03 17:46:25;;;;;;;;;;;9.40;42.30;;;;;;5012929;28;19921;-76
2023/02/03 17:48:57;;;;;;;;;;;9.30;42.30;;;;;;5005996;28;20332;-76
2023/02/03 17:51:38;;;;;;;;;;;9.40;42.30;;;;;;5009287;28;19921;-76
2023/02/03 17:54:07;;;;;;;;;;;9.30;42.40;;;;;;5006019;28;19910;-77
2023/02/03 17:56:37;;;;;;;;;;;9.30;49.70;;;;;;5016863;28;19913;-77
2023/02/03 17:59:04;;;;;;;;;;;9.30;47.10;;;;;;4992317;28;20300;-76
2023/02/03 18:01:37;;;;;;;;;;;9.40;48.40;;;;;;5007135;28;19924;-74
2023/02/03 18:04:19;;;;;;;;;;;9.40;42.30;;;;;;5015832;28;20388;-76
2023/02/03 18:06:45;;;;;;;;;;;9.40;42.30;;;;;;5010320;28;20373;-76
2023/02/03 18:09:12;;;;;;;;;;;9.40;42.30;;;;;;5004380;28;19910;-75
2023/02/03 18:11:38;;;;;;;;;;;9.30;42.30;;;;;;5010088;28;20376;-75
2023/02/03 18:14:13;;;;;;;;;;;9.40;42.30;;;;;;5010744;28;19913;-75
2023/02/03 18:16:39;;;;;;;;;;;9.40;42.30;;;;;;5001260;28;19909;-75
2023/02/03 18:19:06;;;;;;;;;;;9.30;42.30;;;;;;4996402;28;19910;-75
2023/02/03 18:21:49;;;;;;;;;;;9.30;42.40;;;;;;5009367;28;20004;-75
2023/02/03 18:24:17;;;;;;;;;;;9.40;42.50;;;;;;5014956;28;19921;-74
2023/02/03 18:26:50;;;;;;;;;;;9.40;42.30;;;;;;4999020;28;19913;-75
2023/02/03 18:32:19;;;;;;;;;;;9.40;6.60;;;;;;4998082;28;20000;-78
2023/02/03 18:34:49;;;;;;;;;;;9.40;1.00;;;;;;5018182;28;19909;-77
2023/02/03 18:37:15;;;;;;;;;;;9.40;1.00;;;;;;5004720;28;19909;-77
2023/02/03 18:39:43;;;;;;;;;;;9.40;1.00;;;;;;5005630;28;20285;-77
2023/02/03 18:42:08;;;;;;;;;;;9.40;1.00;;;;;;4995538;28;20361;-77
2023/02/03 18:44:55;;;;;;;;;;;9.40;1.00;;;;;;5008758;28;19925;-81
2023/02/03 18:47:25;;;;;;;;;;;9.40;1.00;;;;;;5005125;28;19968;-78
2023/02/03 18:49:55;;;;;;;;;;;9.40;1.00;;;;;;4995730;28;20063;-80
2023/02/03 18:52:20;;;;;;;;;;;9.40;1.00;;;;;;5008930;28;19956;-80
2023/02/03 18:54:55;;;;;;;;;;;9.40;1.00;;;;;;5010080;28;19953;-80
2023/02/03 18:57:25;;;;;;;;;;;9.40;1.00;;;;;;5000125;28;19914;-80